sensor_id;sensor_type;location;lat;lon;timestamp;temperature;humidity
947;DHT22;460;48.734;9.152;2023-04-24T00:01:19;10.00;99.90
947;DHT22;460;48.734;9.152;2023-04-24T00:03:46;10.00;99.90
947;DHT22;460;48.734;9.152;2023-04-24T00:06:14;9.90;99.90
947;DHT22;460;48.734;9.152;2023-04-24T00:08:42;10.00;99.90
947;DHT22;460;48.734;9.152;2023-04-24T00:11:09;10.00;99.90
947;DHT22;460;48.734;9.152;2023-04-24T00:13:35;10.00;99.90
947;DHT22;460;48.734;9.152;2023-04-24T00:16:02;10.00;99.90
947;DHT22;460;48.734;9.152;2023-04-24T00:18:29;10.00;99.90
947;DHT22;460;48.734;9.152;2023-04-24T00:20:56;10.00;99.90
947;DHT22;460;48.734;9.152;2023-04-24T00:23:24;10.00;99.90
947;DHT22;460;48.734;9.152;2023-04-24T00:25:51;10.00;99.90
947;DHT22;460;48.734;9.152;2023-04-24T00:28:18;9.90;99.90
947;DHT22;460;48.734;9.152;2023-04-24T00:30:45;9.90;99.90
947;DHT22;460;48.734;9.152;2023-04-24T00:33:11;10.00;99.90
947;DHT22;460;48.734;9.152;2023-04-24T00:35:38;10.10;99.90
947;DHT22;460;48.734;9.152;2023-04-24T00:38:05;10.10;99.90
947;DHT22;460;48.734;9.152;2023-04-24T00:40:34;10.10;99.90
947;DHT22;460;48.734;9.152;2023-04-24T00:43:00;10.10;99.90
947;DHT22;460;48.734;9.152;2023-04-24T00:45:27;10.10;99.90
947;DHT22;460;48.734;9.152;2023-04-24T00:47:57;10.10;99.90
947;DHT22;460;48.734;9.152;2023-04-24T00:50:24;10.20;99.90
947;DHT22;460;48.734;9.152;2023-04-24T00:52:51;10.20;99.90
947;DHT22;460;48.734;9.152;2023-04-24T00:55:19;10.20;99.90
947;DHT22;460;48.734;9.152;2023-04-24T00:57:47;10.20;99.90
947;DHT22;460;48.734;9.152;2023-04-24T01:00:15;10.20;99.90
947;DHT22;460;48.734;9.152;2023-04-24T01:02:43;10.30;99.90
947;DHT22;460;48.734;9.152;2023-04-24T01:05:11;10.20;99.90
947;DHT22;460;48.734;9.152;2023-04-24T01:07:39;10.20;99.90
947;DHT22;460;48.734;9.152;2023-04-24T01:10:10;10.30;99.90
947;DHT22;460;48.734;9.152;2023-04-24T01:12:37;10.30;99.90
947;DHT22;460;48.734;9.152;2023-04-24T01:15:08;10.30;99.90
947;DHT22;460;48.734;9.152;2023-04-24T01:17:37;10.30;99.90
947;DHT22;460;48.734;9.152;2023-04-24T01:20:06;10.30;99.90
947;DHT22;460;48.734;9.152;2023-04-24T01:22:35;10.40;99.90
947;DHT22;460;48.734;9.152;2023-04-24T01:25:04;10.30;99.90
947;DHT22;460;48.734;9.152;2023-04-24T01:27:33;10.30;99.90
947;DHT22;460;48.734;9.152;2023-04-24T01:30:00;10.30;99.90
947;DHT22;460;48.734;9.152;2023-04-24T01:32:28;10.30;99.90
947;DHT22;460;48.734;9.152;2023-04-24T01:34:55;10.30;99.90
947;DHT22;460;48.734;9.152;2023-04-24T01:37:22;10.20;99.90
947;DHT22;460;48.734;9.152;2023-04-24T01:39:51;10.20;99.90
947;DHT22;460;48.734;9.152;2023-04-24T01:42:18;10.20;99.90
947;DHT22;460;48.734;9.152;2023-04-24T01:44:50;10.20;99.90
947;DHT22;460;48.734;9.152;2023-04-24T01:47:18;10.20;99.90
947;DHT22;460;48.734;9.152;2023-04-24T01:49:48;10.10;99.90
947;DHT22;460;48.734;9.152;2023-04-24T01:52:18;10.30;99.90
947;DHT22;460;48.734;9.152;2023-04-24T01:54:47;10.30;99.90
947;DHT22;460;48.734;9.152;2023-04-24T01:57:16;10.20;99.90
947;DHT22;460;48.734;9.152;2023-04-24T01:59:45;10.20;99.90
947;DHT22;460;48.734;9.152;2023-04-24T02:02:13;10.20;99.90
947;DHT22;460;48.734;9.152;2023-04-24T02:04:41;10.20;99.90
947;DHT22;460;48.734;9.152;2023-04-24T02:07:08;10.30;99.90
947;DHT22;460;48.734;9.152;2023-04-24T02:09:35;10.20;99.90
947;DHT22;460;48.734;9.152;2023-04-24T02:12:02;10.20;99.90
947;DHT22;460;48.734;9.152;2023-04-24T02:14:30;10.20;99.90
947;DHT22;460;48.734;9.152;2023-04-24T02:16:57;10.20;99.90
947;DHT22;460;48.734;9.152;2023-04-24T02:19:24;10.20;99.90
947;DHT22;460;48.734;9.152;2023-04-24T02:21:51;10.20;99.90
947;DHT22;460;48.734;9.152;2023-04-24T02:24:18;10.20;99.90
947;DHT22;460;48.734;9.152;2023-04-24T02:26:46;10.10;99.90
947;DHT22;460;48.734;9.152;2023-04-24T02:29:13;10.10;99.90
947;DHT22;460;48.734;9.152;2023-04-24T02:31:41;10.10;99.90
947;DHT22;460;48.734;9.152;2023-04-24T02:34:11;10.20;99.90
947;DHT22;460;48.734;9.152;2023-04-24T02:36:38;10.10;99.90
947;DHT22;460;48.734;9.152;2023-04-24T02:39:06;10.20;99.90
947;DHT22;460;48.734;9.152;2023-04-24T02:41:34;10.10;99.90
947;DHT22;460;48.734;9.152;2023-04-24T02:44:02;10.10;99.90
947;DHT22;460;48.734;9.152;2023-04-24T02:46:29;10.10;99.90
947;DHT22;460;48.734;9.152;2023-04-24T02:48:57;10.00;99.90
947;DHT22;460;48.734;9.152;2023-04-24T02:51:24;10.10;99.90
947;DHT22;460;48.734;9.152;2023-04-24T02:53:53;10.10;99.90
947;DHT22;460;48.734;9.152;2023-04-24T02:56:20;10.10;99.90
947;DHT22;460;48.734;9.152;2023-04-24T02:58:47;10.10;99.90
947;DHT22;460;48.734;9.152;2023-04-24T03:01:14;10.20;99.90
947;DHT22;460;48.734;9.152;2023-04-24T03:03:42;10.20;99.90
947;DHT22;460;48.734;9.152;2023-04-24T03:06:11;10.20;99.90
947;DHT22;460;48.734;9.152;2023-04-24T03:08:38;10.20;99.90
947;DHT22;460;48.734;9.152;2023-04-24T03:11:05;10.30;99.90
947;DHT22;460;48.734;9.152;2023-04-24T03:13:32;10.30;99.90
947;DHT22;460;48.734;9.152;2023-04-24T03:16:00;10.20;99.90
947;DHT22;460;48.734;9.152;2023-04-24T03:18:28;10.10;99.90
947;DHT22;460;48.734;9.152;2023-04-24T03:20:55;10.10;99.90
947;DHT22;460;48.734;9.152;2023-04-24T03:23:24;10.10;99.90
947;DHT22;460;48.734;9.152;2023-04-24T03:25:51;10.00;99.90
947;DHT22;460;48.734;9.152;2023-04-24T03:28:18;10.00;99.90
947;DHT22;460;48.734;9.152;2023-04-24T03:30:45;10.00;99.90
947;DHT22;460;48.734;9.152;2023-04-24T03:33:12;10.00;99.90
947;DHT22;460;48.734;9.152;2023-04-24T03:35:39;10.00;99.90
947;DHT22;460;48.734;9.152;2023-04-24T03:38:06;10.00;99.90
947;DHT22;460;48.734;9.152;2023-04-24T03:40:34;10.00;99.90
947;DHT22;460;48.734;9.152;2023-04-24T03:43:01;10.00;99.90
947;DHT22;460;48.734;9.152;2023-04-24T03:45:28;9.90;99.90
947;DHT22;460;48.734;9.152;2023-04-24T03:47:55;9.80;99.90
947;DHT22;460;48.734;9.152;2023-04-24T03:50:22;9.90;99.90
947;DHT22;460;48.734;9.152;2023-04-24T03:52:48;9.80;99.90
947;DHT22;460;48.734;9.152;2023-04-24T03:55:15;9.90;99.90
947;DHT22;460;48.734;9.152;2023-04-24T03:57:44;9.80;99.90
947;DHT22;460;48.734;9.152;2023-04-24T04:00:11;9.80;99.90
947;DHT22;460;48.734;9.152;2023-04-24T04:02:39;9.80;99.90
947;DHT22;460;48.734;9.152;2023-04-24T04:05:06;9.80;99.90
947;DHT22;460;48.734;9.152;2023-04-24T04:07:34;9.70;99.90
947;DHT22;460;48.734;9.152;2023-04-24T04:10:00;9.80;99.90
947;DHT22;460;48.734;9.152;2023-04-24T04:12:27;9.70;99.90
947;DHT22;460;48.734;9.152;2023-04-24T04:14:55;9.70;99.90
947;DHT22;460;48.734;9.152;2023-04-24T04:17:22;9.80;99.90
947;DHT22;460;48.734;9.152;2023-04-24T04:19:49;9.80;99.90
947;DHT22;460;48.734;9.152;2023-04-24T04:22:16;9.70;99.90
947;DHT22;460;48.734;9.152;2023-04-24T04:24:42;9.80;99.90
947;DHT22;460;48.734;9.152;2023-04-24T04:27:10;9.80;99.90
947;DHT22;460;48.734;9.152;2023-04-24T04:29:38;9.70;99.90
947;DHT22;460;48.734;9.152;2023-04-24T04:32:07;9.50;99.90
947;DHT22;460;48.734;9.152;2023-04-24T04:34:33;9.50;99.90
947;DHT22;460;48.734;9.152;2023-04-24T04:37:03;9.30;99.90
947;DHT22;460;48.734;9.152;2023-04-24T04:39:29;9.10;99.90
947;DHT22;460;48.734;9.152;2023-04-24T04:41:56;9.10;99.90
947;DHT22;460;48.734;9.152;2023-04-24T04:44:24;8.90;99.90
947;DHT22;460;48.734;9.152;2023-04-24T04:46:50;8.80;99.90
947;DHT22;460;48.734;9.152;2023-04-24T04:49:23;8.70;99.90
947;DHT22;460;48.734;9.152;2023-04-24T04:51:50;8.80;99.90
947;DHT22;460;48.734;9.152;2023-04-24T04:54:17;8.70;99.90
947;DHT22;460;48.734;9.152;2023-04-24T04:56:44;8.60;99.90
947;DHT22;460;48.734;9.152;2023-04-24T04:59:10;8.60;99.90
947;DHT22;460;48.734;9.152;2023-04-24T05:01:37;8.60;99.90
947;DHT22;460;48.734;9.152;2023-04-24T05:04:04;8.60;99.90
947;DHT22;460;48.734;9.152;2023-04-24T05:06:32;8.50;99.90
947;DHT22;460;48.734;9.152;2023-04-24T05:08:59;8.50;99.90
947;DHT22;460;48.734;9.152;2023-04-24T05:11:26;8.50;99.90
947;DHT22;460;48.734;9.152;2023-04-24T05:13:53;8.50;99.90
947;DHT22;460;48.734;9.152;2023-04-24T05:16:19;8.60;99.90
947;DHT22;460;48.734;9.152;2023-04-24T05:18:47;8.60;99.90
947;DHT22;460;48.734;9.152;2023-04-24T05:21:13;8.60;99.90
947;DHT22;460;48.734;9.152;2023-04-24T05:23:41;8.50;99.90
947;DHT22;460;48.734;9.152;2023-04-24T05:26:08;8.50;99.90
947;DHT22;460;48.734;9.152;2023-04-24T05:28:35;8.50;99.90
947;DHT22;460;48.734;9.152;2023-04-24T05:31:02;8.60;99.90
947;DHT22;460;48.734;9.152;2023-04-24T05:33:32;8.60;99.90
947;DHT22;460;48.734;9.152;2023-04-24T05:35:58;8.60;99.90
947;DHT22;460;48.734;9.152;2023-04-24T05:38:25;8.60;99.90
947;DHT22;460;48.734;9.152;2023-04-24T05:40:53;8.60;99.90
947;DHT22;460;48.734;9.152;2023-04-24T05:43:20;8.70;99.90
947;DHT22;460;48.734;9.152;2023-04-24T05:45:47;8.60;99.90
947;DHT22;460;48.734;9.152;2023-04-24T05:48:14;8.60;99.90
947;DHT22;460;48.734;9.152;2023-04-24T05:50:41;8.60;99.90
947;DHT22;460;48.734;9.152;2023-04-24T05:53:08;8.70;99.90
947;DHT22;460;48.734;9.152;2023-04-24T05:55:36;8.70;99.90
947;DHT22;460;48.734;9.152;2023-04-24T05:58:04;8.70;99.90
947;DHT22;460;48.734;9.152;2023-04-24T06:00:31;8.70;99.90
947;DHT22;460;48.734;9.152;2023-04-24T06:02:59;8.80;99.90
947;DHT22;460;48.734;9.152;2023-04-24T06:05:26;8.90;99.90
947;DHT22;460;48.734;9.152;2023-04-24T06:07:53;8.90;99.90
947;DHT22;460;48.734;9.152;2023-04-24T06:10:19;8.90;99.90
947;DHT22;460;48.734;9.152;2023-04-24T06:12:46;8.80;99.90
947;DHT22;460;48.734;9.152;2023-04-24T06:15:14;8.80;99.90
947;DHT22;460;48.734;9.152;2023-04-24T06:17:41;8.70;99.90
947;DHT22;460;48.734;9.152;2023-04-24T06:20:09;8.80;99.90
947;DHT22;460;48.734;9.152;2023-04-24T06:22:36;9.00;99.90
947;DHT22;460;48.734;9.152;2023-04-24T06:25:06;9.00;99.90
947;DHT22;460;48.734;9.152;2023-04-24T06:27:32;9.00;99.90
947;DHT22;460;48.734;9.152;2023-04-24T06:29:59;9.10;99.90
947;DHT22;460;48.734;9.152;2023-04-24T06:32:27;9.30;99.90
947;DHT22;460;48.734;9.152;2023-04-24T06:34:56;9.30;99.90
947;DHT22;460;48.734;9.152;2023-04-24T06:37:23;9.40;99.90
947;DHT22;460;48.734;9.152;2023-04-24T06:39:50;9.40;99.90
947;DHT22;460;48.734;9.152;2023-04-24T06:42:17;9.50;99.90
947;DHT22;460;48.734;9.152;2023-04-24T06:44:46;9.60;99.90
947;DHT22;460;48.734;9.152;2023-04-24T06:47:12;9.80;99.90
947;DHT22;460;48.734;9.152;2023-04-24T06:49:41;10.00;99.90
947;DHT22;460;48.734;9.152;2023-04-24T06:52:08;10.10;99.90
947;DHT22;460;48.734;9.152;2023-04-24T06:54:35;10.10;99.90
947;DHT22;460;48.734;9.152;2023-04-24T06:57:02;10.30;99.90
947;DHT22;460;48.734;9.152;2023-04-24T06:59:29;10.30;99.90
947;DHT22;460;48.734;9.152;2023-04-24T07:01:56;10.30;99.90
947;DHT22;460;48.734;9.152;2023-04-24T07:04:23;10.40;99.90
947;DHT22;460;48.734;9.152;2023-04-24T07:06:52;10.50;99.90
947;DHT22;460;48.734;9.152;2023-04-24T07:09:21;10.60;99.90
947;DHT22;460;48.734;9.152;2023-04-24T07:11:49;10.70;99.90
947;DHT22;460;48.734;9.152;2023-04-24T07:14:16;10.60;99.90
947;DHT22;460;48.734;9.152;2023-04-24T07:16:44;10.60;99.90
947;DHT22;460;48.734;9.152;2023-04-24T07:19:11;10.70;99.90
947;DHT22;460;48.734;9.152;2023-04-24T07:21:37;10.60;99.90
947;DHT22;460;48.734;9.152;2023-04-24T07:24:06;10.50;99.90
947;DHT22;460;48.734;9.152;2023-04-24T07:26:36;10.40;99.90
947;DHT22;460;48.734;9.152;2023-04-24T07:29:03;10.20;99.90
947;DHT22;460;48.734;9.152;2023-04-24T07:31:30;10.10;99.90
947;DHT22;460;48.734;9.152;2023-04-24T07:33:57;10.20;99.90
947;DHT22;460;48.734;9.152;2023-04-24T07:36:24;10.20;99.90
947;DHT22;460;48.734;9.152;2023-04-24T07:38:51;10.10;99.90
947;DHT22;460;48.734;9.152;2023-04-24T07:41:20;10.20;99.90
947;DHT22;460;48.734;9.152;2023-04-24T07:43:47;10.40;99.90
947;DHT22;460;48.734;9.152;2023-04-24T07:46:14;10.60;99.90
947;DHT22;460;48.734;9.152;2023-04-24T07:48:40;10.60;98.30
947;DHT22;460;48.734;9.152;2023-04-24T07:51:07;10.70;98.40
947;DHT22;460;48.734;9.152;2023-04-24T07:53:35;10.80;99.90
947;DHT22;460;48.734;9.152;2023-04-24T07:56:02;10.90;99.90
947;DHT22;460;48.734;9.152;2023-04-24T07:58:30;10.80;99.90
947;DHT22;460;48.734;9.152;2023-04-24T08:00:57;10.70;98.40
947;DHT22;460;48.734;9.152;2023-04-24T08:03:24;10.60;97.90
947;DHT22;460;48.734;9.152;2023-04-24T08:05:50;10.60;97.80
947;DHT22;460;48.734;9.152;2023-04-24T08:08:19;10.60;97.40
947;DHT22;460;48.734;9.152;2023-04-24T08:10:46;10.40;97.50
947;DHT22;460;48.734;9.152;2023-04-24T08:13:13;10.30;96.40
947;DHT22;460;48.734;9.152;2023-04-24T08:15:41;10.20;95.40
947;DHT22;460;48.734;9.152;2023-04-24T08:18:08;10.10;97.00
947;DHT22;460;48.734;9.152;2023-04-24T08:20:37;10.10;96.70
947;DHT22;460;48.734;9.152;2023-04-24T08:23:04;10.20;96.70
947;DHT22;460;48.734;9.152;2023-04-24T08:25:31;10.40;97.60
947;DHT22;460;48.734;9.152;2023-04-24T08:27:57;10.30;95.20
947;DHT22;460;48.734;9.152;2023-04-24T08:30:24;10.40;94.50
947;DHT22;460;48.734;9.152;2023-04-24T08:32:52;10.50;93.90
947;DHT22;460;48.734;9.152;2023-04-24T08:35:19;10.70;95.00
947;DHT22;460;48.734;9.152;2023-04-24T08:37:46;10.70;93.00
947;DHT22;460;48.734;9.152;2023-04-24T08:40:15;10.80;93.60
947;DHT22;460;48.734;9.152;2023-04-24T08:42:42;10.90;93.40
947;DHT22;460;48.734;9.152;2023-04-24T08:45:11;11.00;94.40
947;DHT22;460;48.734;9.152;2023-04-24T08:47:38;11.30;94.20
947;DHT22;460;48.734;9.152;2023-04-24T08:50:08;11.60;94.20
947;DHT22;460;48.734;9.152;2023-04-24T08:52:35;11.70;92.20
947;DHT22;460;48.734;9.152;2023-04-24T08:55:02;11.70;92.40
947;DHT22;460;48.734;9.152;2023-04-24T08:57:50;11.80;91.00
947;DHT22;460;48.734;9.152;2023-04-24T09:00:18;11.80;92.20
947;DHT22;460;48.734;9.152;2023-04-24T09:02:47;11.70;91.60
947;DHT22;460;48.734;9.152;2023-04-24T09:05:16;11.60;92.60
947;DHT22;460;48.734;9.152;2023-04-24T09:07:45;11.60;92.20
947;DHT22;460;48.734;9.152;2023-04-24T09:10:13;11.70;91.60
947;DHT22;460;48.734;9.152;2023-04-24T09:12:40;11.90;91.90
947;DHT22;460;48.734;9.152;2023-04-24T09:15:08;11.90;91.50
947;DHT22;460;48.734;9.152;2023-04-24T09:17:36;11.90;92.50
947;DHT22;460;48.734;9.152;2023-04-24T09:20:03;11.80;92.00
947;DHT22;460;48.734;9.152;2023-04-24T09:22:31;11.80;91.50
947;DHT22;460;48.734;9.152;2023-04-24T09:25:03;12.00;91.40
947;DHT22;460;48.734;9.152;2023-04-24T09:27:31;12.00;91.60
947;DHT22;460;48.734;9.152;2023-04-24T09:29:59;11.80;91.10
947;DHT22;460;48.734;9.152;2023-04-24T09:32:26;11.70;91.70
947;DHT22;460;48.734;9.152;2023-04-24T09:35:09;11.40;88.10
947;DHT22;460;48.734;9.152;2023-04-24T09:37:38;11.70;87.70
947;DHT22;460;48.734;9.152;2023-04-24T09:40:12;12.00;88.40
947;DHT22;460;48.734;9.152;2023-04-24T09:42:39;12.20;86.90
947;DHT22;460;48.734;9.152;2023-04-24T09:45:09;12.50;86.60
947;DHT22;460;48.734;9.152;2023-04-24T09:47:36;12.90;84.10
947;DHT22;460;48.734;9.152;2023-04-24T09:50:10;12.90;82.60
947;DHT22;460;48.734;9.152;2023-04-24T09:52:42;12.60;81.80
947;DHT22;460;48.734;9.152;2023-04-24T09:55:14;12.30;80.90
947;DHT22;460;48.734;9.152;2023-04-24T09:57:52;12.00;82.10
947;DHT22;460;48.734;9.152;2023-04-24T10:00:24;12.00;83.30
947;DHT22;460;48.734;9.152;2023-04-24T10:02:54;11.70;82.20
947;DHT22;460;48.734;9.152;2023-04-24T10:05:27;11.70;81.20
947;DHT22;460;48.734;9.152;2023-04-24T10:08:01;11.40;80.90
947;DHT22;460;48.734;9.152;2023-04-24T10:10:29;11.50;82.90
947;DHT22;460;48.734;9.152;2023-04-24T10:12:56;11.70;81.70
947;DHT22;460;48.734;9.152;2023-04-24T10:15:24;12.10;83.60
947;DHT22;460;48.734;9.152;2023-04-24T10:17:51;12.30;81.50
947;DHT22;460;48.734;9.152;2023-04-24T10:20:20;12.20;81.50
947;DHT22;460;48.734;9.152;2023-04-24T10:22:49;12.60;80.00
947;DHT22;460;48.734;9.152;2023-04-24T10:25:22;12.60;76.30
947;DHT22;460;48.734;9.152;2023-04-24T10:27:50;12.50;78.90
947;DHT22;460;48.734;9.152;2023-04-24T10:30:18;12.60;78.70
947;DHT22;460;48.734;9.152;2023-04-24T10:32:45;12.80;76.80
947;DHT22;460;48.734;9.152;2023-04-24T10:35:13;13.00;75.20
947;DHT22;460;48.734;9.152;2023-04-24T10:37:44;13.40;77.40
947;DHT22;460;48.734;9.152;2023-04-24T10:40:16;13.40;74.80
947;DHT22;460;48.734;9.152;2023-04-24T10:42:47;13.30;74.30
947;DHT22;460;48.734;9.152;2023-04-24T10:45:17;13.10;75.40
947;DHT22;460;48.734;9.152;2023-04-24T10:47:52;12.80;75.50
947;DHT22;460;48.734;9.152;2023-04-24T10:50:19;12.70;74.00
947;DHT22;460;48.734;9.152;2023-04-24T10:52:46;12.40;72.50
947;DHT22;460;48.734;9.152;2023-04-24T10:55:13;12.20;73.50
947;DHT22;460;48.734;9.152;2023-04-24T10:58:02;11.90;76.10
947;DHT22;460;48.734;9.152;2023-04-24T11:00:29;11.90;76.70
947;DHT22;460;48.734;9.152;2023-04-24T11:02:57;11.70;75.60
947;DHT22;460;48.734;9.152;2023-04-24T11:05:49;11.70;78.10
947;DHT22;460;48.734;9.152;2023-04-24T11:08:32;11.50;77.30
947;DHT22;460;48.734;9.152;2023-04-24T11:11:01;11.30;79.60
947;DHT22;460;48.734;9.152;2023-04-24T11:14:06;11.40;81.10
947;DHT22;460;48.734;9.152;2023-04-24T11:16:35;11.40;79.30
947;DHT22;460;48.734;9.152;2023-04-24T11:19:05;11.20;78.60
947;DHT22;460;48.734;9.152;2023-04-24T11:21:39;11.10;80.10
947;DHT22;460;48.734;9.152;2023-04-24T11:24:30;11.10;80.30
947;DHT22;460;48.734;9.152;2023-04-24T11:26:58;11.10;82.60
947;DHT22;460;48.734;9.152;2023-04-24T11:29:41;11.30;81.30
947;DHT22;460;48.734;9.152;2023-04-24T11:32:17;11.70;81.90
947;DHT22;460;48.734;9.152;2023-04-24T11:34:46;12.20;79.60
947;DHT22;460;48.734;9.152;2023-04-24T11:37:13;12.40;78.50
947;DHT22;460;48.734;9.152;2023-04-24T11:39:40;12.40;78.50
947;DHT22;460;48.734;9.152;2023-04-24T11:42:07;12.30;80.00
947;DHT22;460;48.734;9.152;2023-04-24T11:44:35;12.10;79.00
947;DHT22;460;48.734;9.152;2023-04-24T11:47:04;11.90;78.10
947;DHT22;460;48.734;9.152;2023-04-24T11:49:31;11.70;81.50
947;DHT22;460;48.734;9.152;2023-04-24T11:51:59;11.60;80.20
947;DHT22;460;48.734;9.152;2023-04-24T11:54:26;11.60;80.40
947;DHT22;460;48.734;9.152;2023-04-24T11:56:53;11.70;80.30
947;DHT22;460;48.734;9.152;2023-04-24T11:59:20;11.80;79.20
947;DHT22;460;48.734;9.152;2023-04-24T12:01:47;12.30;79.90
947;DHT22;460;48.734;9.152;2023-04-24T12:04:17;13.10;78.90
947;DHT22;460;48.734;9.152;2023-04-24T12:06:59;13.50;75.50
947;DHT22;460;48.734;9.152;2023-04-24T12:09:26;13.70;74.10
947;DHT22;460;48.734;9.152;2023-04-24T12:11:54;13.40;71.50
947;DHT22;460;48.734;9.152;2023-04-24T12:14:22;13.10;73.70
947;DHT22;460;48.734;9.152;2023-04-24T12:16:49;12.60;73.90
947;DHT22;460;48.734;9.152;2023-04-24T12:19:20;12.10;75.00
947;DHT22;460;48.734;9.152;2023-04-24T12:21:59;11.90;76.70
947;DHT22;460;48.734;9.152;2023-04-24T12:24:26;11.50;78.60
947;DHT22;460;48.734;9.152;2023-04-24T12:26:53;11.40;79.50
947;DHT22;460;48.734;9.152;2023-04-24T12:29:20;11.50;79.90
947;DHT22;460;48.734;9.152;2023-04-24T12:31:47;11.60;79.20
947;DHT22;460;48.734;9.152;2023-04-24T12:34:19;11.70;77.10
947;DHT22;460;48.734;9.152;2023-04-24T12:36:46;11.70;77.30
947;DHT22;460;48.734;9.152;2023-04-24T12:39:16;11.70;78.30
947;DHT22;460;48.734;9.152;2023-04-24T12:42:04;11.70;77.50
947;DHT22;460;48.734;9.152;2023-04-24T12:44:31;11.70;76.50
947;DHT22;460;48.734;9.152;2023-04-24T12:47:00;11.90;77.60
947;DHT22;460;48.734;9.152;2023-04-24T12:49:30;11.90;79.60
947;DHT22;460;48.734;9.152;2023-04-24T12:51:57;11.90;78.80
947;DHT22;460;48.734;9.152;2023-04-24T12:54:23;11.50;79.80
947;DHT22;460;48.734;9.152;2023-04-24T12:56:50;11.40;80.30
947;DHT22;460;48.734;9.152;2023-04-24T12:59:17;11.20;81.20
947;DHT22;460;48.734;9.152;2023-04-24T13:01:44;11.00;80.10
947;DHT22;460;48.734;9.152;2023-04-24T13:04:11;11.00;82.50
947;DHT22;460;48.734;9.152;2023-04-24T13:06:39;11.10;83.30
947;DHT22;460;48.734;9.152;2023-04-24T13:09:06;11.10;85.50
947;DHT22;460;48.734;9.152;2023-04-24T13:11:33;11.00;84.20
947;DHT22;460;48.734;9.152;2023-04-24T13:13:59;10.70;84.70
947;DHT22;460;48.734;9.152;2023-04-24T13:16:26;10.60;90.00
947;DHT22;460;48.734;9.152;2023-04-24T13:18:53;10.50;92.20
947;DHT22;460;48.734;9.152;2023-04-24T13:21:20;10.50;93.20
947;DHT22;460;48.734;9.152;2023-04-24T13:23:48;10.80;94.10
947;DHT22;460;48.734;9.152;2023-04-24T13:26:15;11.00;93.70
947;DHT22;460;48.734;9.152;2023-04-24T13:28:44;11.60;93.70
947;DHT22;460;48.734;9.152;2023-04-24T13:31:10;12.50;92.50
947;DHT22;460;48.734;9.152;2023-04-24T13:33:37;12.40;88.50
947;DHT22;460;48.734;9.152;2023-04-24T13:36:04;12.00;88.60
947;DHT22;460;48.734;9.152;2023-04-24T13:38:31;11.70;87.30
947;DHT22;460;48.734;9.152;2023-04-24T13:40:59;11.60;87.70
947;DHT22;460;48.734;9.152;2023-04-24T13:43:26;11.40;87.20
947;DHT22;460;48.734;9.152;2023-04-24T13:45:53;11.20;89.00
947;DHT22;460;48.734;9.152;2023-04-24T13:48:20;11.20;90.20
947;DHT22;460;48.734;9.152;2023-04-24T13:50:47;11.00;91.00
947;DHT22;460;48.734;9.152;2023-04-24T13:53:15;10.70;91.00
947;DHT22;460;48.734;9.152;2023-04-24T13:55:42;10.60;93.40
947;DHT22;460;48.734;9.152;2023-04-24T13:58:10;10.40;94.70
947;DHT22;460;48.734;9.152;2023-04-24T14:00:37;10.30;95.60
947;DHT22;460;48.734;9.152;2023-04-24T14:03:03;10.70;97.80
947;DHT22;460;48.734;9.152;2023-04-24T14:05:30;11.90;96.70
947;DHT22;460;48.734;9.152;2023-04-24T14:07:57;13.00;95.30
947;DHT22;460;48.734;9.152;2023-04-24T14:10:24;14.30;93.70
947;DHT22;460;48.734;9.152;2023-04-24T14:12:52;14.30;91.10
947;DHT22;460;48.734;9.152;2023-04-24T14:15:21;13.60;87.60
947;DHT22;460;48.734;9.152;2023-04-24T14:17:48;12.80;89.70
947;DHT22;460;48.734;9.152;2023-04-24T14:20:15;12.20;90.40
947;DHT22;460;48.734;9.152;2023-04-24T14:22:41;11.70;90.90
947;DHT22;460;48.734;9.152;2023-04-24T14:25:09;11.20;91.40
947;DHT22;460;48.734;9.152;2023-04-24T14:27:35;10.70;92.50
947;DHT22;460;48.734;9.152;2023-04-24T14:30:03;10.30;94.10
947;DHT22;460;48.734;9.152;2023-04-24T14:32:31;10.20;95.30
947;DHT22;460;48.734;9.152;2023-04-24T14:34:58;10.30;97.20
947;DHT22;460;48.734;9.152;2023-04-24T14:37:25;11.30;98.70
947;DHT22;460;48.734;9.152;2023-04-24T14:39:51;12.80;97.60
947;DHT22;460;48.734;9.152;2023-04-24T14:42:18;13.80;94.10
947;DHT22;460;48.734;9.152;2023-04-24T14:44:45;14.80;91.80
947;DHT22;460;48.734;9.152;2023-04-24T14:47:12;14.70;90.00
947;DHT22;460;48.734;9.152;2023-04-24T14:49:40;13.90;90.10
947;DHT22;460;48.734;9.152;2023-04-24T14:52:07;13.10;90.40
947;DHT22;460;48.734;9.152;2023-04-24T14:54:33;12.50;91.60
947;DHT22;460;48.734;9.152;2023-04-24T14:57:00;12.10;91.20
947;DHT22;460;48.734;9.152;2023-04-24T14:59:27;12.00;92.10
947;DHT22;460;48.734;9.152;2023-04-24T15:01:54;12.10;91.60
947;DHT22;460;48.734;9.152;2023-04-24T15:04:23;12.20;91.80
947;DHT22;460;48.734;9.152;2023-04-24T15:06:52;12.10;91.20
947;DHT22;460;48.734;9.152;2023-04-24T15:09:19;11.80;91.40
947;DHT22;460;48.734;9.152;2023-04-24T15:11:47;11.50;91.30
947;DHT22;460;48.734;9.152;2023-04-24T15:14:14;11.40;90.70
947;DHT22;460;48.734;9.152;2023-04-24T15:16:41;11.40;91.40
947;DHT22;460;48.734;9.152;2023-04-24T15:19:08;11.30;91.20
947;DHT22;460;48.734;9.152;2023-04-24T15:21:35;11.10;91.20
947;DHT22;460;48.734;9.152;2023-04-24T15:24:04;11.10;91.00
947;DHT22;460;48.734;9.152;2023-04-24T15:26:31;11.20;91.80
947;DHT22;460;48.734;9.152;2023-04-24T15:28:57;11.10;92.00
947;DHT22;460;48.734;9.152;2023-04-24T15:31:24;11.10;89.90
947;DHT22;460;48.734;9.152;2023-04-24T15:33:51;11.10;91.30
947;DHT22;460;48.734;9.152;2023-04-24T15:36:18;11.10;90.80
947;DHT22;460;48.734;9.152;2023-04-24T15:38:47;11.00;90.50
947;DHT22;460;48.734;9.152;2023-04-24T15:41:15;11.00;92.20
947;DHT22;460;48.734;9.152;2023-04-24T15:43:42;10.70;93.20
947;DHT22;460;48.734;9.152;2023-04-24T15:46:09;10.30;94.10
947;DHT22;460;48.734;9.152;2023-04-24T15:48:36;10.00;95.00
947;DHT22;460;48.734;9.152;2023-04-24T15:51:06;10.00;96.60
947;DHT22;460;48.734;9.152;2023-04-24T15:53:33;10.10;97.20
947;DHT22;460;48.734;9.152;2023-04-24T15:56:00;10.20;96.30
947;DHT22;460;48.734;9.152;2023-04-24T15:58:28;10.30;97.30
947;DHT22;460;48.734;9.152;2023-04-24T16:00:55;10.40;98.60
947;DHT22;460;48.734;9.152;2023-04-24T16:03:22;10.40;97.50
947;DHT22;460;48.734;9.152;2023-04-24T16:05:49;10.70;97.70
947;DHT22;460;48.734;9.152;2023-04-24T16:08:16;11.20;96.30
947;DHT22;460;48.734;9.152;2023-04-24T16:10:43;11.40;95.40
947;DHT22;460;48.734;9.152;2023-04-24T16:13:11;11.40;95.10
947;DHT22;460;48.734;9.152;2023-04-24T16:15:39;11.10;94.10
947;DHT22;460;48.734;9.152;2023-04-24T16:18:06;11.00;95.20
947;DHT22;460;48.734;9.152;2023-04-24T16:20:33;10.90;95.10
947;DHT22;460;48.734;9.152;2023-04-24T16:23:00;11.00;95.10
947;DHT22;460;48.734;9.152;2023-04-24T16:25:27;11.00;95.10
947;DHT22;460;48.734;9.152;2023-04-24T16:27:54;10.90;94.80
947;DHT22;460;48.734;9.152;2023-04-24T16:30:21;10.80;94.60
947;DHT22;460;48.734;9.152;2023-04-24T16:32:49;10.70;94.10
947;DHT22;460;48.734;9.152;2023-04-24T16:35:16;10.70;93.40
947;DHT22;460;48.734;9.152;2023-04-24T16:37:43;10.80;94.60
947;DHT22;460;48.734;9.152;2023-04-24T16:40:10;10.80;93.80
947;DHT22;460;48.734;9.152;2023-04-24T16:42:39;10.80;93.80